createdAt,value
2023-04-28T00:00:33.825Z,9.70
2023-04-28T00:03:00.838Z,9.70
2023-04-28T00:05:28.155Z,9.70
2023-04-28T00:07:55.234Z,9.90
2023-04-28T00:10:22.028Z,9.80
2023-04-28T00:12:48.928Z,9.80
2023-04-28T00:15:16.106Z,9.90
2023-04-28T00:17:43.502Z,10.10
2023-04-28T00:20:11.240Z,10.00
2023-04-28T00:22:38.369Z,10.00
2023-04-28T00:25:06.101Z,10.20
2023-04-28T00:27:36.438Z,10.10
2023-04-28T00:30:03.987Z,10.00
2023-04-28T00:32:30.749Z,9.90
2023-04-28T00:34:57.840Z,9.70
2023-04-28T00:37:24.564Z,9.80
2023-04-28T00:39:55.789Z,9.70
2023-04-28T00:42:22.553Z,9.80
2023-04-28T00:44:49.297Z,10.00
2023-04-28T00:47:18.203Z,10.30
2023-04-28T00:49:45.591Z,10.40
2023-04-28T00:52:12.331Z,10.50
2023-04-28T00:54:39.339Z,10.50
2023-04-28T00:57:06.148Z,10.50
2023-04-28T00:59:32.962Z,10.50
2023-04-28T01:02:01.702Z,10.50
2023-04-28T01:04:29.914Z,10.40
2023-04-28T01:06:56.965Z,10.60
2023-04-28T01:09:23.737Z,10.50
2023-04-28T01:11:50.596Z,10.40
2023-04-28T01:14:17.640Z,10.40
2023-04-28T01:16:44.763Z,10.50
2023-04-28T01:19:22.924Z,10.80
2023-04-28T01:21:52.681Z,10.60
2023-04-28T01:24:19.711Z,10.40
2023-04-28T01:26:46.685Z,10.40
2023-04-28T01:29:13.621Z,10.30
2023-04-28T01:31:41.301Z,10.30
2023-04-28T01:34:08.227Z,10.70
2023-04-28T01:36:37.205Z,10.70
2023-04-28T01:39:04.959Z,10.50
2023-04-28T01:41:34.446Z,10.60
2023-04-28T01:44:01.554Z,10.80
2023-04-28T01:46:28.438Z,11.00
2023-04-28T01:48:55.445Z,11.10
2023-04-28T01:51:22.215Z,11.00
2023-04-28T01:53:48.924Z,11.00
2023-04-28T01:56:15.683Z,10.90
2023-04-28T01:58:42.399Z,10.50
2023-04-28T02:01:09.246Z,10.60
2023-04-28T02:03:36.343Z,10.60
2023-04-28T02:06:04.024Z,10.50
2023-04-28T02:08:31.819Z,10.40
2023-04-28T02:10:58.614Z,9.90
2023-04-28T02:13:25.348Z,9.90
2023-04-28T02:15:52.142Z,9.90
2023-04-28T02:18:18.927Z,9.90
2023-04-28T02:20:45.769Z,9.70
2023-04-28T02:23:13.235Z,9.50
2023-04-28T02:25:40.032Z,9.70
2023-04-28T02:28:07.205Z,9.80
2023-04-28T02:30:33.969Z,9.70
2023-04-28T02:33:00.906Z,9.60
2023-04-28T02:35:27.976Z,9.60
2023-04-28T02:37:54.727Z,9.80
2023-04-28T02:40:21.507Z,9.60
2023-04-28T02:42:48.231Z,9.60
2023-04-28T02:45:15.133Z,9.60
2023-04-28T02:47:41.906Z,9.80
2023-04-28T02:50:09.268Z,9.70
2023-04-28T02:52:35.998Z,9.60
2023-04-28T02:55:03.864Z,10.00
2023-04-28T02:57:31.001Z,9.70
2023-04-28T02:59:57.729Z,9.80
2023-04-28T03:02:24.557Z,9.80
2023-04-28T03:04:51.575Z,9.80
2023-04-28T03:07:18.477Z,9.50
2023-04-28T03:09:46.414Z,9.70
2023-04-28T03:12:13.166Z,9.70
2023-04-28T03:14:39.958Z,9.90
2023-04-28T03:17:07.568Z,9.90
2023-04-28T03:19:34.387Z,9.90
2023-04-28T03:22:01.198Z,9.90
2023-04-28T03:24:27.967Z,9.70
2023-04-28T03:26:54.712Z,9.80
2023-04-28T03:29:21.488Z,10.10
2023-04-28T03:31:48.346Z,9.90
2023-04-28T03:34:15.322Z,10.20
2023-04-28T03:36:42.262Z,10.30
2023-04-28T03:39:09.863Z,10.00
2023-04-28T03:41:36.592Z,10.30
2023-04-28T03:44:03.334Z,10.30
2023-04-28T03:46:30.184Z,9.90
2023-04-28T03:48:56.958Z,10.10
2023-04-28T03:51:23.666Z,10.00
2023-04-28T03:53:50.419Z,10.30
2023-04-28T03:56:17.248Z,10.20
2023-04-28T03:58:44.006Z,10.10
2023-04-28T04:01:10.887Z,10.40
2023-04-28T04:03:38.324Z,10.10
2023-04-28T04:06:05.848Z,10.10
2023-04-28T04:08:33.346Z,10.10
2023-04-28T04:11:00.067Z,10.40
2023-04-28T04:13:26.878Z,10.60
2023-04-28T04:15:54.147Z,10.70
2023-04-28T04:18:21.006Z,10.50
2023-04-28T04:20:47.777Z,10.30
2023-04-28T04:23:14.552Z,10.50
2023-04-28T04:25:41.323Z,10.60
2023-04-28T04:28:08.452Z,10.80
2023-04-28T04:30:35.291Z,10.70
2023-04-28T04:33:02.035Z,10.90
2023-04-28T04:35:28.869Z,11.00
2023-04-28T04:37:55.771Z,10.90
2023-04-28T04:40:22.613Z,10.60
2023-04-28T04:42:49.421Z,10.50
2023-04-28T04:45:16.423Z,10.40
2023-04-28T04:47:43.896Z,10.60
2023-04-28T04:50:12.122Z,11.10
2023-04-28T04:52:39.264Z,10.90
2023-04-28T04:55:06.751Z,10.50
2023-04-28T04:57:33.546Z,10.70
2023-04-28T05:00:00.460Z,10.90
2023-04-28T05:02:27.195Z,11.20
2023-04-28T05:04:59.529Z,11.40
2023-04-28T05:07:32.088Z,11.00
2023-04-28T05:09:58.809Z,10.80
2023-04-28T05:12:25.530Z,10.50
2023-04-28T05:14:52.297Z,10.50
2023-04-28T05:17:19.043Z,10.60
2023-04-28T05:19:46.119Z,10.40
2023-04-28T05:22:12.957Z,10.60
2023-04-28T05:24:39.708Z,10.50
2023-04-28T05:27:06.481Z,10.40
2023-04-28T05:29:33.321Z,10.50
2023-04-28T05:32:00.089Z,10.60
2023-04-28T05:34:26.980Z,10.90
2023-04-28T05:36:53.934Z,10.70
2023-04-28T05:39:20.672Z,10.70
2023-04-28T05:41:47.389Z,10.90
2023-04-28T05:44:14.235Z,11.00
2023-04-28T05:46:41.499Z,11.00
2023-04-28T05:49:08.937Z,11.30
2023-04-28T05:51:35.785Z,11.60
2023-04-28T05:54:03.042Z,11.70
2023-04-28T05:56:29.926Z,12.00
2023-04-28T05:58:56.745Z,12.10
2023-04-28T06:01:23.582Z,12.20
2023-04-28T06:03:50.567Z,12.40
2023-04-28T06:06:17.500Z,12.40
2023-04-28T06:08:44.308Z,12.50
2023-04-28T06:11:11.015Z,12.60
2023-04-28T06:13:37.749Z,12.70
2023-04-28T06:16:04.866Z,12.60
2023-04-28T06:18:32.950Z,12.70
2023-04-28T06:20:59.814Z,12.80
2023-04-28T06:23:26.611Z,12.80
2023-04-28T06:25:53.440Z,12.80
2023-04-28T06:28:20.276Z,12.90
2023-04-28T06:30:47.057Z,12.90
2023-04-28T06:33:13.811Z,12.80
2023-04-28T06:35:40.652Z,12.80
2023-04-28T06:38:07.737Z,12.90
2023-04-28T06:40:34.520Z,12.90
2023-04-28T06:43:01.283Z,12.90
2023-04-28T06:45:28.051Z,12.90
2023-04-28T06:47:57.537Z,12.90
2023-04-28T06:50:24.899Z,12.90
2023-04-28T06:52:51.774Z,13.00
2023-04-28T06:55:18.667Z,13.00
2023-04-28T06:57:45.533Z,13.00
2023-04-28T07:00:14.054Z,13.00
2023-04-28T07:02:41.029Z,13.00
2023-04-28T07:05:08.870Z,13.00
2023-04-28T07:07:38.625Z,13.10
2023-04-28T07:10:06.519Z,13.20
2023-04-28T07:12:33.412Z,13.10
2023-04-28T07:15:00.186Z,13.20
2023-04-28T07:17:27.019Z,13.10
2023-04-28T07:19:53.921Z,13.10
2023-04-28T07:22:20.662Z,13.20
2023-04-28T07:24:50.528Z,13.20
2023-04-28T07:27:17.339Z,13.20
2023-04-28T07:29:44.154Z,13.30
2023-04-28T07:32:11.214Z,13.20
2023-04-28T07:34:38.082Z,13.30
2023-04-28T07:37:05.148Z,13.30
2023-04-28T07:39:34.098Z,13.30
2023-04-28T07:42:03.014Z,13.40
2023-04-28T07:44:30.320Z,13.40
2023-04-28T07:46:57.126Z,13.50
2023-04-28T07:49:23.896Z,13.60
2023-04-28T07:51:53.577Z,13.70
2023-04-28T07:54:20.709Z,13.80
2023-04-28T07:56:47.684Z,13.90
2023-04-28T07:59:14.615Z,14.00
2023-04-28T08:01:42.755Z,14.00
2023-04-28T08:04:10.144Z,14.10
2023-04-28T08:06:37.980Z,14.10
2023-04-28T08:09:06.281Z,14.10
2023-04-28T08:11:33.793Z,14.20
2023-04-28T08:14:04.225Z,14.20
2023-04-28T08:16:31.982Z,14.10
2023-04-28T08:19:00.438Z,14.20
2023-04-28T08:21:27.357Z,14.10
2023-04-28T08:23:54.294Z,14.20
2023-04-28T08:26:21.319Z,14.30
2023-04-28T08:28:48.064Z,14.30
2023-04-28T08:31:14.954Z,14.30
2023-04-28T08:33:44.582Z,14.30
2023-04-28T08:36:15.072Z,14.30
2023-04-28T08:38:42.179Z,14.40
2023-04-28T08:41:09.164Z,14.40
2023-04-28T08:43:36.881Z,14.40
2023-04-28T08:46:07.970Z,14.40
2023-04-28T08:48:43.712Z,14.40
2023-04-28T08:51:40.775Z,14.50
2023-04-28T08:54:18.993Z,14.50
2023-04-28T08:56:52.710Z,14.50
2023-04-28T08:59:20.702Z,14.60
2023-04-28T09:01:49.822Z,14.60
2023-04-28T09:04:18.376Z,14.60
2023-04-28T09:06:46.526Z,14.60
2023-04-28T09:09:27.563Z,14.60
2023-04-28T09:12:02.300Z,14.60
2023-04-28T09:14:31.242Z,14.60
2023-04-28T09:16:57.944Z,14.60
2023-04-28T09:19:32.741Z,14.70
2023-04-28T09:22:02.143Z,14.70
2023-04-28T09:24:40.722Z,14.80
2023-04-28T09:27:11.790Z,14.90
2023-04-28T09:29:39.177Z,15.10
2023-04-28T09:32:19.618Z,15.20
2023-04-28T09:34:56.822Z,15.30
2023-04-28T09:37:26.096Z,15.30
2023-04-28T09:39:54.611Z,15.40
2023-04-28T09:42:38.077Z,15.40
2023-04-28T09:45:12.016Z,15.50
2023-04-28T09:47:44.229Z,15.60
2023-04-28T09:50:14.942Z,15.90
2023-04-28T09:52:42.898Z,15.80
2023-04-28T09:55:11.186Z,15.90
2023-04-28T09:57:39.434Z,16.00
2023-04-28T10:00:09.135Z,16.10
2023-04-28T10:05:09.685Z,15.80
2023-04-28T10:07:37.587Z,15.70
2023-04-28T10:10:06.927Z,15.70
2023-04-28T10:12:34.115Z,15.80
2023-04-28T10:15:01.337Z,15.90
2023-04-28T10:17:29.692Z,15.90
2023-04-28T10:19:57.570Z,15.90
2023-04-28T10:22:43.049Z,16.00
2023-04-28T10:25:12.947Z,16.10
2023-04-28T10:27:44.714Z,16.10
2023-04-28T10:30:26.362Z,16.20
2023-04-28T10:33:13.997Z,16.60
2023-04-28T10:35:42.859Z,16.50
2023-04-28T10:38:16.713Z,16.60
2023-04-28T10:40:48.171Z,16.60
2023-04-28T10:43:33.735Z,16.50
2023-04-28T10:46:06.313Z,16.40
2023-04-28T10:48:33.230Z,16.30
2023-04-28T10:51:13.266Z,16.30
2023-04-28T10:53:46.775Z,16.00
2023-04-28T10:56:20.236Z,15.90
2023-04-28T10:58:49.127Z,15.80
2023-04-28T11:01:22.625Z,15.70
2023-04-28T11:04:08.020Z,15.80
2023-04-28T11:06:40.158Z,15.90
2023-04-28T11:09:12.783Z,15.90
2023-04-28T11:11:59.981Z,16.00
2023-04-28T11:14:33.074Z,15.90
2023-04-28T11:17:06.999Z,15.90
2023-04-28T11:19:33.761Z,15.90
2023-04-28T11:22:09.901Z,15.80
2023-04-28T11:24:36.702Z,15.80
2023-04-28T11:27:03.657Z,15.70
2023-04-28T11:29:36.030Z,15.70
2023-04-28T11:32:07.362Z,15.60
2023-04-28T11:34:34.644Z,15.50
2023-04-28T11:37:01.489Z,15.40
2023-04-28T11:39:30.618Z,15.30
2023-04-28T11:42:10.508Z,15.20
2023-04-28T11:44:37.278Z,15.10
2023-04-28T11:47:06.162Z,15.10
2023-04-28T11:49:46.519Z,15.00
2023-04-28T11:52:14.117Z,14.90
2023-04-28T11:54:43.481Z,14.90
2023-04-28T11:57:21.467Z,14.90
2023-04-28T11:59:49.710Z,14.80
2023-04-28T12:02:24.281Z,14.80
2023-04-28T12:04:52.127Z,14.60
2023-04-28T12:07:19.861Z,14.70
2023-04-28T12:10:06.802Z,14.60
2023-04-28T12:15:06.541Z,14.60
2023-04-28T12:17:35.266Z,14.60
2023-04-28T12:20:04.670Z,14.60
2023-04-28T12:22:42.857Z,14.60
2023-04-28T12:25:11.566Z,14.60
2023-04-28T12:27:40.619Z,14.80
2023-04-28T12:30:32.332Z,15.00
2023-04-28T12:32:59.212Z,15.10
2023-04-28T12:35:27.434Z,15.00
2023-04-28T12:37:56.200Z,14.70
2023-04-28T12:40:23.228Z,14.50
2023-04-28T12:42:50.782Z,14.60
2023-04-28T12:45:17.791Z,14.60
2023-04-28T12:47:44.605Z,14.60
2023-04-28T12:50:11.497Z,14.60
2023-04-28T12:52:38.339Z,14.50
2023-04-28T12:55:05.572Z,14.50
2023-04-28T12:57:32.353Z,14.50
2023-04-28T12:59:59.088Z,14.50
2023-04-28T13:02:26.089Z,14.50
2023-04-28T13:04:53.608Z,14.50
2023-04-28T13:07:20.771Z,14.40
2023-04-28T13:09:48.193Z,14.50
2023-04-28T13:12:15.626Z,14.50
2023-04-28T13:14:42.502Z,14.40
2023-04-28T13:17:10.493Z,14.30
2023-04-28T13:19:38.008Z,14.30
2023-04-28T13:22:06.759Z,14.40
2023-04-28T13:24:34.003Z,14.50
2023-04-28T13:27:00.846Z,14.50
2023-04-28T13:29:27.664Z,14.50
2023-04-28T13:31:54.693Z,14.50
2023-04-28T13:34:21.510Z,14.50
2023-04-28T13:36:50.895Z,14.40
2023-04-28T13:39:20.270Z,14.40
2023-04-28T13:41:47.199Z,14.40
2023-04-28T13:44:14.020Z,14.50
2023-04-28T13:46:40.826Z,14.50
2023-04-28T13:49:09.473Z,14.50
2023-04-28T13:51:36.518Z,14.60
2023-04-28T13:54:08.939Z,14.60
2023-04-28T13:56:36.675Z,14.60
2023-04-28T13:59:03.887Z,14.60
2023-04-28T14:01:30.957Z,14.50
2023-04-28T14:03:58.193Z,14.50
2023-04-28T14:06:25.321Z,14.40
2023-04-28T14:08:52.408Z,14.30
2023-04-28T14:11:19.178Z,14.30
2023-04-28T14:13:45.954Z,14.30
2023-04-28T14:16:12.785Z,14.30
2023-04-28T14:18:39.624Z,14.40
2023-04-28T14:21:08.482Z,14.40
2023-04-28T14:23:35.748Z,14.50
2023-04-28T14:26:02.788Z,14.60
2023-04-28T14:28:29.662Z,14.60
2023-04-28T14:30:56.705Z,14.60
2023-04-28T14:33:24.312Z,14.70
2023-04-28T14:35:51.210Z,14.70
2023-04-28T14:38:18.278Z,14.70
2023-04-28T14:40:45.136Z,14.70
2023-04-28T14:43:11.936Z,14.70
2023-04-28T14:45:38.800Z,14.80
2023-04-28T14:48:07.645Z,14.90
2023-04-28T14:50:34.510Z,15.00
2023-04-28T14:53:05.669Z,15.00
2023-04-28T14:55:33.144Z,15.00
2023-04-28T14:57:59.878Z,15.00
2023-04-28T15:00:26.612Z,15.10
2023-04-28T15:02:53.708Z,15.20
2023-04-28T15:05:20.610Z,15.20
2023-04-28T15:07:47.526Z,15.20
2023-04-28T15:10:14.325Z,15.10
2023-04-28T15:12:42.465Z,15.00
2023-04-28T15:15:10.085Z,15.00
2023-04-28T15:17:36.925Z,15.00
2023-04-28T15:20:05.122Z,15.00
2023-04-28T15:22:31.882Z,15.10
2023-04-28T15:24:58.746Z,15.10
2023-04-28T15:27:25.530Z,15.10
2023-04-28T15:29:52.248Z,15.30
2023-04-28T15:32:19.182Z,15.40
2023-04-28T15:34:46.099Z,15.40
2023-04-28T15:37:47.678Z,15.40
2023-04-28T15:40:16.721Z,15.40
2023-04-28T15:42:52.135Z,15.40
2023-04-28T15:45:22.783Z,15.40
2023-04-28T15:47:50.692Z,15.30
2023-04-28T15:50:19.731Z,15.30
2023-04-28T15:52:47.862Z,15.10
2023-04-28T15:55:16.216Z,15.10
2023-04-28T15:57:43.501Z,15.10
2023-04-28T16:00:11.421Z,15.00
2023-04-28T16:02:39.229Z,14.90
2023-04-28T16:05:06.670Z,14.90
2023-04-28T16:07:41.023Z,14.90
2023-04-28T16:10:13.234Z,14.80
2023-04-28T16:12:41.138Z,14.80
2023-04-28T16:15:10.921Z,14.70
2023-04-28T16:17:38.655Z,14.60
2023-04-28T16:20:07.245Z,14.50
2023-04-28T16:22:34.660Z,14.40
2023-04-28T16:25:03.895Z,14.40
2023-04-28T16:27:31.813Z,14.50
2023-04-28T16:29:59.142Z,14.50
2023-04-28T16:32:26.323Z,14.50
2023-04-28T16:34:53.166Z,14.50
2023-04-28T16:37:19.940Z,14.40
2023-04-28T16:39:48.354Z,14.30
2023-04-28T16:42:15.527Z,14.30
2023-04-28T16:44:42.765Z,14.10
2023-04-28T16:47:09.699Z,14.10
2023-04-28T16:49:36.527Z,14.00
2023-04-28T16:52:04.720Z,14.00
2023-04-28T16:54:32.139Z,13.90
2023-04-28T16:56:59.818Z,13.90
2023-04-28T16:59:29.596Z,13.90
2023-04-28T17:01:56.863Z,13.80
2023-04-28T17:04:25.151Z,13.80
2023-04-28T17:06:53.016Z,13.80
2023-04-28T17:09:20.929Z,13.70
2023-04-28T17:11:48.437Z,13.70
2023-04-28T17:14:15.517Z,13.70
2023-04-28T17:16:45.494Z,13.70
2023-04-28T17:19:12.956Z,13.60
2023-04-28T17:21:39.741Z,13.60
2023-04-28T17:24:06.795Z,13.70
2023-04-28T17:26:34.752Z,13.70
2023-04-28T17:29:02.432Z,13.60
2023-04-28T17:31:29.797Z,13.60
2023-04-28T17:33:59.574Z,13.50
2023-04-28T17:36:27.212Z,13.50
2023-04-28T17:38:54.446Z,13.40
2023-04-28T17:41:22.545Z,13.40
2023-04-28T17:43:51.780Z,13.30
2023-04-28T17:46:18.901Z,13.30
2023-04-28T17:48:45.742Z,13.40
2023-04-28T17:51:12.679Z,13.40
2023-04-28T17:53:39.713Z,13.30
2023-04-28T17:56:06.746Z,13.20
2023-04-28T17:58:33.739Z,13.20
2023-04-28T18:01:01.987Z,13.20
2023-04-28T18:03:29.163Z,13.10
2023-04-28T18:05:56.196Z,13.20
2023-04-28T18:08:22.987Z,13.10
2023-04-28T18:10:49.825Z,13.10
2023-04-28T18:13:16.726Z,13.00
2023-04-28T18:15:44.360Z,12.90
2023-04-28T18:18:11.272Z,13.10
2023-04-28T18:20:38.283Z,13.10
2023-04-28T18:23:06.202Z,13.00
2023-04-28T18:25:33.351Z,13.00
2023-04-28T18:28:00.125Z,12.90
2023-04-28T18:30:26.955Z,12.80
2023-04-28T18:32:53.754Z,13.00
2023-04-28T18:35:20.576Z,13.00
2023-04-28T18:37:47.403Z,13.10
2023-04-28T18:40:14.233Z,12.90
2023-04-28T18:42:41.040Z,12.90
2023-04-28T18:45:09.083Z,13.00
2023-04-28T18:47:35.855Z,12.90
2023-04-28T18:50:03.555Z,12.90
2023-04-28T18:52:30.429Z,12.80
2023-04-28T18:54:57.137Z,12.80
2023-04-28T18:57:24.108Z,12.90
2023-04-28T18:59:51.106Z,13.00
2023-04-28T19:02:18.255Z,12.90
2023-04-28T19:04:45.938Z,12.90
2023-04-28T19:07:12.759Z,12.90
2023-04-28T19:09:39.517Z,12.90
2023-04-28T19:12:06.350Z,13.00
2023-04-28T19:14:33.326Z,12.90
2023-04-28T19:17:00.102Z,12.90
2023-04-28T19:19:26.985Z,12.90
2023-04-28T19:21:53.752Z,12.90
2023-04-28T19:24:20.458Z,13.00
2023-04-28T19:26:47.249Z,12.90
2023-04-28T19:29:17.162Z,13.10
2023-04-28T19:31:44.520Z,12.90
2023-04-28T19:34:11.239Z,12.80
2023-04-28T19:36:38.050Z,12.80
2023-04-28T19:39:04.996Z,12.80
2023-04-28T19:41:31.816Z,12.70
2023-04-28T19:43:58.606Z,12.70
2023-04-28T19:46:25.342Z,12.70
2023-04-28T19:48:52.751Z,12.70
2023-04-28T19:51:19.560Z,12.70
2023-04-28T19:53:47.398Z,12.60
2023-04-28T19:56:14.145Z,12.50
2023-04-28T19:58:41.110Z,12.40
2023-04-28T20:01:08.293Z,12.30
2023-04-28T20:03:36.286Z,12.20
2023-04-28T20:06:03.818Z,12.20
2023-04-28T20:08:30.673Z,12.20
2023-04-28T20:10:57.436Z,12.20
2023-04-28T20:13:24.944Z,12.20
2023-04-28T20:15:52.890Z,12.20
2023-04-28T20:18:19.755Z,12.20
2023-04-28T20:20:46.647Z,12.10
2023-04-28T20:23:13.448Z,12.20
2023-04-28T20:25:41.306Z,12.20
2023-04-28T20:28:08.124Z,12.30
2023-04-28T20:30:34.924Z,12.30
2023-04-28T20:33:01.743Z,12.30
2023-04-28T20:35:29.085Z,12.20
2023-04-28T20:37:55.819Z,12.20
2023-04-28T20:40:22.855Z,12.10
2023-04-28T20:42:50.344Z,12.10
2023-04-28T20:45:18.537Z,12.10
2023-04-28T20:47:45.488Z,12.10
2023-04-28T20:50:12.900Z,12.10
2023-04-28T20:52:39.750Z,12.00
2023-04-28T20:55:09.488Z,12.00
2023-04-28T20:57:36.254Z,12.00
2023-04-28T21:00:04.447Z,12.00
2023-04-28T21:02:31.288Z,12.00
2023-04-28T21:04:58.235Z,12.00
2023-04-28T21:07:25.038Z,12.00
2023-04-28T21:09:52.350Z,12.00
2023-04-28T21:12:19.395Z,12.00
2023-04-28T21:14:46.151Z,11.90
2023-04-28T21:17:12.923Z,11.90
2023-04-28T21:19:40.102Z,11.90
2023-04-28T21:22:06.816Z,11.80
2023-04-28T21:24:33.561Z,11.80
2023-04-28T21:27:00.475Z,11.80
2023-04-28T21:29:27.591Z,11.80
2023-04-28T21:31:54.447Z,11.80
2023-04-28T21:34:21.191Z,11.80
2023-04-28T21:36:48.459Z,11.70
2023-04-28T21:39:15.215Z,11.70
2023-04-28T21:41:42.378Z,11.70
2023-04-28T21:44:09.115Z,11.70
2023-04-28T21:46:36.121Z,11.70
2023-04-28T21:49:03.049Z,11.70
2023-04-28T21:51:29.777Z,11.70
2023-04-28T21:53:56.515Z,11.70
2023-04-28T21:56:23.327Z,11.70
2023-04-28T21:58:50.062Z,11.60
2023-04-28T22:01:18.032Z,11.60
2023-04-28T22:03:45.942Z,11.60
2023-04-28T22:06:13.661Z,11.60
2023-04-28T22:08:40.420Z,11.60
2023-04-28T22:11:07.362Z,11.60
2023-04-28T22:13:34.100Z,11.60
2023-04-28T22:16:01.969Z,11.60
2023-04-28T22:18:29.225Z,11.70
2023-04-28T22:20:56.047Z,11.70
2023-04-28T22:23:22.993Z,11.60
2023-04-28T22:25:50.477Z,11.60
2023-04-28T22:28:17.274Z,11.50
2023-04-28T22:30:46.089Z,11.50
2023-04-28T22:33:12.915Z,11.50
2023-04-28T22:35:39.752Z,11.50
2023-04-28T22:38:06.619Z,11.50
2023-04-28T22:40:33.423Z,11.40
2023-04-28T22:43:00.163Z,11.40
2023-04-28T22:45:27.241Z,11.30
2023-04-28T22:47:54.227Z,11.30
2023-04-28T22:50:21.097Z,11.30
2023-04-28T22:52:48.026Z,11.30
2023-04-28T22:55:15.011Z,11.30
2023-04-28T22:57:41.833Z,11.40
2023-04-28T23:00:09.132Z,11.40
2023-04-28T23:02:36.288Z,11.40
2023-04-28T23:05:04.058Z,11.30
2023-04-28T23:07:30.982Z,11.30
2023-04-28T23:09:57.778Z,11.30
2023-04-28T23:12:24.525Z,11.30
2023-04-28T23:14:51.310Z,11.30
2023-04-28T23:17:18.131Z,11.30
2023-04-28T23:19:44.910Z,11.20
2023-04-28T23:22:11.680Z,11.20
2023-04-28T23:24:39.981Z,11.20
2023-04-28T23:27:07.040Z,11.10
2023-04-28T23:29:35.898Z,11.10
2023-04-28T23:32:03.535Z,11.10
2023-04-28T23:34:33.323Z,11.10
2023-04-28T23:37:00.175Z,11.10
2023-04-28T23:39:29.960Z,11.00
2023-04-28T23:41:56.922Z,11.00
2023-04-28T23:44:23.631Z,11.00
2023-04-28T23:46:50.489Z,10.90
2023-04-28T23:49:17.276Z,10.90
2023-04-28T23:51:44.054Z,10.90
2023-04-28T23:54:11.727Z,10.90
2023-04-28T23:56:38.607Z,10.80
2023-04-28T23:59:05.443Z,10.80
